Time;durP1;ratioP1;P1;durP2;ratioP2;P2;SDS_P1;SDS_P2;PMS_P1;PMS_P2;Temp;Humidity;BMP_temperature;BMP_pressure;BME280_temperature;BME280_humidity;BME280_pressure;Samples;Min_cycle;Max_cycle;Signal;HPM_P1;HPM_P2
2022/09/11 00:04:45;;;;;;;4.57;3.50;;;22.00;65.50;;;;;;10126170;29;20108;-52
2022/09/11 00:09:46;;;;;;;4.82;3.50;;;22.00;65.40;;;;;;10125750;29;20447;-50
2022/09/11 00:14:46;;;;;;;4.68;3.88;;;22.00;65.30;;;;;;10125964;29;20085;-51
2022/09/11 00:19:47;;;;;;;5.93;3.63;;;22.00;65.30;;;;;;10138191;29;20039;-51
2022/09/11 00:24:48;;;;;;;4.95;4.40;;;21.90;65.20;;;;;;10108546;29;20085;-50
2022/09/11 00:29:49;;;;;;;4.10;3.70;;;21.90;65.20;;;;;;10125204;29;20074;-50
2022/09/11 00:34:50;;;;;;;5.93;4.55;;;21.90;65.20;;;;;;10125590;29;20863;-52
2022/09/11 00:39:51;;;;;;;5.15;4.30;;;21.90;65.20;;;;;;10108378;29;20132;-49
2022/09/11 00:44:59;;;;;;;5.13;4.03;;;21.90;65.10;;;;;;10125247;29;20040;-49
2022/09/11 00:50:16;;;;;;;3.92;3.53;;;21.90;65.10;;;;;;10108879;29;20330;-51
2022/09/11 00:55:18;;;;;;;4.10;3.70;;;21.90;65.00;;;;;;10124416;29;20044;-52
2022/09/11 01:00:21;;;;;;;5.63;4.35;;;21.90;65.00;;;;;;10108148;29;20029;-51
2022/09/11 01:05:25;;;;;;;6.18;4.00;;;21.90;65.00;;;;;;10126628;29;20041;-50
2022/09/11 01:11:02;;;;;;;6.78;4.10;;;21.90;65.00;;;;;;10115940;29;20025;-52
2022/09/11 01:16:37;;;;;;;6.20;4.05;;;21.90;65.00;;;;;;10120199;29;20087;-53
2022/09/11 01:22:03;;;;;;;4.47;3.53;;;21.80;64.90;;;;;;10134590;29;20024;-51
2022/09/11 01:27:51;;;;;;;4.20;3.78;;;21.80;64.90;;;;;;10116188;29;20033;-52
2022/09/11 01:33:40;;;;;;;6.25;4.28;;;21.80;64.80;;;;;;10094030;29;20049;-53
2022/09/11 01:38:51;;;;;;;9.23;4.43;;;21.80;64.80;;;;;;10115250;29;20036;-53
2022/09/11 01:44:05;;;;;;;4.68;4.13;;;21.80;64.70;;;;;;10113245;29;20051;-53
2022/09/11 01:49:19;;;;;;;4.95;4.22;;;21.80;64.70;;;;;;10127867;29;20393;-52
2022/09/11 01:54:24;;;;;;;4.53;4.07;;;21.80;64.70;;;;;;10113511;29;20053;-51
2022/09/11 01:59:34;;;;;;;5.25;3.90;;;21.80;64.70;;;;;;10113807;29;20113;-52
2022/09/11 02:04:55;;;;;;;4.93;4.43;;;21.80;64.60;;;;;;10113513;29;20116;-52
2022/09/11 02:10:03;;;;;;;4.25;3.58;;;21.80;64.50;;;;;;10114019;29;20037;-52
2022/09/11 02:15:04;;;;;;;5.70;4.20;;;21.80;64.40;;;;;;10112386;29;20635;-52
2022/09/11 02:20:07;;;;;;;5.13;4.20;;;21.80;64.40;;;;;;10128327;29;20043;-52
2022/09/11 02:25:08;;;;;;;4.07;3.38;;;21.70;64.30;;;;;;10112831;29;20032;-53
2022/09/11 02:30:09;;;;;;;4.55;4.00;;;21.80;64.30;;;;;;10112105;29;20052;-52
2022/09/11 02:35:10;;;;;;;4.78;4.13;;;21.70;64.10;;;;;;10112689;29;20044;-54
2022/09/11 02:40:30;;;;;;;4.72;3.65;;;21.70;64.10;;;;;;10129022;29;20033;-52
2022/09/11 02:46:05;;;;;;;4.50;3.80;;;21.70;64.00;;;;;;10129065;29;20041;-52
2022/09/11 02:51:37;;;;;;;4.07;3.65;;;21.70;64.00;;;;;;10127808;29;20036;-52
2022/09/11 02:57:08;;;;;;;4.15;3.75;;;21.70;63.90;;;;;;10112421;29;20132;-51
2022/09/11 03:02:13;;;;;;;4.03;3.15;;;21.70;63.90;;;;;;10128001;29;20048;-53
2022/09/11 03:07:13;;;;;;;3.95;3.25;;;21.70;63.70;;;;;;10110979;29;20067;-52
2022/09/11 03:12:14;;;;;;;5.15;4.15;;;21.70;63.70;;;;;;10127440;29;20051;-52
2022/09/11 03:17:15;;;;;;;3.65;3.22;;;21.70;63.70;;;;;;10127048;29;20117;-51
2022/09/11 03:22:16;;;;;;;3.42;2.97;;;21.60;63.60;;;;;;10127263;29;20028;-52
2022/09/11 03:27:17;;;;;;;3.78;3.22;;;21.70;63.60;;;;;;10126219;29;20068;-51
2022/09/11 03:32:17;;;;;;;5.70;4.07;;;21.70;63.60;;;;;;10109934;29;20040;-52
2022/09/11 03:37:19;;;;;;;6.00;4.10;;;21.70;63.50;;;;;;10126599;29;20028;-52
2022/09/11 03:42:20;;;;;;;4.07;3.67;;;21.70;63.50;;;;;;10126150;29;20029;-52
2022/09/11 03:47:21;;;;;;;4.25;3.75;;;21.70;63.40;;;;;;10126060;29;20040;-49
2022/09/11 03:52:21;;;;;;;3.78;3.38;;;21.60;63.40;;;;;;10125846;29;20699;-52
2022/09/11 03:57:22;;;;;;;4.03;3.58;;;21.60;63.30;;;;;;10125856;29;20180;-52
2022/09/11 04:02:23;;;;;;;4.25;3.70;;;21.60;63.30;;;;;;10126067;29;20032;-52
2022/09/11 04:07:24;;;;;;;5.18;3.45;;;21.60;63.30;;;;;;10125699;29;20161;-52
2022/09/11 04:12:25;;;;;;;4.43;3.90;;;21.60;63.20;;;;;;10108625;29;20670;-52
2022/09/11 04:17:29;;;;;;;3.50;3.03;;;21.60;63.30;;;;;;10125262;29;20033;-53
2022/09/11 04:22:29;;;;;;;3.92;3.50;;;21.60;63.20;;;;;;10125530;29;20645;-52
2022/09/11 04:27:30;;;;;;;3.05;2.67;;;21.60;63.10;;;;;;10125009;29;20052;-52
2022/09/11 04:32:31;;;;;;;3.17;2.65;;;21.60;63.10;;;;;;10123991;29;20157;-52
2022/09/11 04:37:34;;;;;;;3.80;2.45;;;21.60;63.00;;;;;;10123808;29;20029;-53
2022/09/11 04:42:34;;;;;;;3.03;2.72;;;21.60;63.00;;;;;;10129455;29;20103;-50
2022/09/11 04:47:35;;;;;;;3.38;2.30;;;21.60;62.90;;;;;;10137855;29;20056;-51
2022/09/11 04:52:36;;;;;;;2.60;2.13;;;21.50;62.80;;;;;;10148682;29;20511;-53
2022/09/11 04:57:37;;;;;;;2.78;2.42;;;21.50;62.60;;;;;;10140603;29;20054;-52
2022/09/11 05:02:39;;;;;;;4.05;2.42;;;21.50;62.60;;;;;;10135596;29;20037;-52
2022/09/11 05:07:40;;;;;;;3.03;2.20;;;21.60;62.90;;;;;;10131990;29;20041;-53
2022/09/11 05:12:40;;;;;;;3.75;2.10;;;21.70;63.10;;;;;;10120971;29;20044;-53
2022/09/11 05:17:41;;;;;;;4.35;2.00;;;21.80;63.50;;;;;;10144506;29;20484;-52
2022/09/11 05:22:41;;;;;;;5.43;2.03;;;21.80;63.90;;;;;;10135292;29;20056;-50
2022/09/11 05:27:42;;;;;;;5.82;2.33;;;21.70;63.40;;;;;;10114392;29;20068;-51
2022/09/11 05:32:43;;;;;;;13.63;2.97;;;21.70;64.00;;;;;;10131345;29;20109;-47
2022/09/11 05:37:44;;;;;;;11.63;2.15;;;21.60;64.20;;;;;;10131515;29;20064;-54
2022/09/11 05:42:45;;;;;;;6.90;2.47;;;21.60;63.80;;;;;;10130280;29;20041;-53
2022/09/11 05:47:46;;;;;;;8.25;2.50;;;21.60;63.00;;;;;;10136772;29;20047;-53
2022/09/11 05:52:46;;;;;;;8.07;2.42;;;21.60;64.00;;;;;;10112218;29;20478;-54
2022/09/11 05:57:47;;;;;;;14.63;2.60;;;21.50;64.00;;;;;;10129642;29;20449;-53
2022/09/11 06:02:48;;;;;;;8.85;2.25;;;21.60;63.90;;;;;;10130748;29;20141;-54
2022/09/11 06:07:50;;;;;;;5.82;2.08;;;21.50;64.20;;;;;;10129326;29;20107;-52
2022/09/11 06:12:50;;;;;;;6.65;2.80;;;21.50;63.90;;;;;;10128088;29;20044;-51
2022/09/11 06:17:51;;;;;;;5.88;1.70;;;21.50;64.30;;;;;;10130208;29;20057;-53
2022/09/11 06:22:53;;;;;;;5.60;2.42;;;21.50;63.90;;;;;;10129614;29;20056;-53
2022/09/11 06:27:55;;;;;;;5.18;2.05;;;21.50;64.00;;;;;;10126314;29;20132;-53
2022/09/11 06:32:56;;;;;;;5.80;1.98;;;21.50;64.00;;;;;;10126764;29;20069;-52
2022/09/11 06:37:57;;;;;;;6.40;1.83;;;21.50;64.20;;;;;;10127169;29;20039;-53
2022/09/11 06:42:57;;;;;;;3.50;1.63;;;21.50;64.20;;;;;;10123875;29;20119;-54
2022/09/11 06:47:59;;;;;;;2.63;1.48;;;21.40;64.30;;;;;;10123834;29;20116;-52
2022/09/11 06:52:59;;;;;;;2.10;1.58;;;21.40;64.30;;;;;;10106207;29;20044;-52
2022/09/11 06:58:01;;;;;;;2.42;1.73;;;21.40;64.40;;;;;;10125586;29;20051;-54
2022/09/11 07:03:03;;;;;;;3.00;1.65;;;21.40;64.40;;;;;;10109740;29;20053;-54
2022/09/11 07:08:04;;;;;;;7.82;2.42;;;21.40;64.40;;;;;;10126216;29;20096;-53
2022/09/11 07:13:05;;;;;;;5.47;2.10;;;21.40;65.00;;;;;;10124709;29;20087;-54
2022/09/11 07:18:05;;;;;;;4.78;2.00;;;21.50;65.20;;;;;;10120397;29;20124;-54
2022/09/11 07:23:07;;;;;;;4.68;1.63;;;21.50;65.10;;;;;;10106702;29;20061;-52
2022/09/11 07:28:11;;;;;;;3.38;1.92;;;21.50;65.20;;;;;;10117742;29;20051;-54
2022/09/11 07:33:11;;;;;;;9.50;3.13;;;21.50;65.50;;;;;;10124132;29;20068;-54
2022/09/11 07:38:12;;;;;;;5.30;2.30;;;21.50;65.80;;;;;;10126298;29;20111;-54
2022/09/11 07:43:14;;;;;;;8.82;2.75;;;21.40;66.00;;;;;;10126417;29;20787;-54
2022/09/11 07:48:14;;;;;;;13.43;2.65;;;21.40;66.40;;;;;;10120201;29;20067;-54
2022/09/11 07:53:15;;;;;;;7.78;2.38;;;21.40;66.40;;;;;;10125759;29;20049;-55
2022/09/11 07:58:16;;;;;;;8.88;2.65;;;21.40;66.60;;;;;;10108194;29;20135;-53
2022/09/11 08:03:18;;;;;;;8.70;3.05;;;21.50;66.70;;;;;;10123631;29;20037;-53
2022/09/11 08:08:19;;;;;;;13.20;3.33;;;21.50;66.70;;;;;;10122742;29;20699;-54
2022/09/11 08:13:21;;;;;;;8.75;4.28;;;21.50;66.70;;;;;;10123409;29;20135;-53
2022/09/11 08:18:22;;;;;;;7.90;2.92;;;21.50;66.40;;;;;;10138157;29;20087;-53
2022/09/11 08:23:23;;;;;;;8.95;2.83;;;21.50;66.40;;;;;;10108790;29;20120;-52
2022/09/11 08:28:23;;;;;;;9.07;3.58;;;21.50;66.40;;;;;;10124638;29;20408;-53
2022/09/11 08:33:24;;;;;;;8.50;3.42;;;21.50;66.40;;;;;;10124535;29;20512;-52
2022/09/11 08:38:26;;;;;;;6.85;3.45;;;21.50;66.50;;;;;;10123834;29;20500;-54
2022/09/11 08:43:32;;;;;;;7.50;3.28;;;21.50;66.50;;;;;;10123803;29;20056;-53
2022/09/11 08:49:00;;;;;;;11.50;3.38;;;21.50;66.60;;;;;;10108170;29;20107;-53
2022/09/11 08:54:02;;;;;;;7.47;3.80;;;21.60;66.50;;;;;;10123895;29;20033;-53
2022/09/11 08:59:32;;;;;;;11.77;3.80;;;21.60;66.60;;;;;;10106721;29;20045;-54
2022/09/11 09:05:16;;;;;;;10.02;4.18;;;21.60;66.60;;;;;;10123056;29;20540;-52
2022/09/11 09:10:29;;;;;;;8.82;3.65;;;21.60;66.60;;;;;;10124028;29;20036;-54
2022/09/11 09:15:55;;;;;;;7.47;3.25;;;21.60;66.70;;;;;;10122658;29;20033;-53
2022/09/11 09:21:05;;;;;;;11.82;4.78;;;21.70;66.70;;;;;;10114721;29;20063;-53
2022/09/11 09:26:16;;;;;;;9.73;4.45;;;21.70;66.70;;;;;;10123085;29;20041;-53
2022/09/11 09:31:21;;;;;;;7.93;4.68;;;21.70;66.80;;;;;;10114843;29;20515;-52
2022/09/11 09:36:48;;;;;;;7.45;3.33;;;21.70;66.80;;;;;;10114252;29;20132;-53
2022/09/11 09:42:13;;;;;;;7.47;4.18;;;21.70;66.80;;;;;;10130874;29;20096;-53
2022/09/11 09:47:14;;;;;;;8.32;4.07;;;21.70;67.00;;;;;;10130015;29;20048;-52
2022/09/11 09:52:23;;;;;;;14.43;5.07;;;21.60;67.20;;;;;;10112054;29;20040;-53
2022/09/11 09:57:31;;;;;;;15.45;5.57;;;21.60;67.40;;;;;;10123546;29;20049;-54
2022/09/11 10:02:42;;;;;;;14.00;6.37;;;21.60;68.30;;;;;;10127012;29;20103;-54
2022/09/11 10:08:02;;;;;;;11.45;5.43;;;21.70;68.30;;;;;;10127512;29;20040;-56
2022/09/11 10:13:23;;;;;;;24.20;7.03;;;21.80;68.50;;;;;;10108328;29;20048;-55
2022/09/11 10:18:43;;;;;;;12.95;5.22;;;21.80;68.30;;;;;;10131490;29;20032;-54
2022/09/11 10:24:18;;;;;;;15.00;4.88;;;21.80;68.60;;;;;;10128907;29;20040;-54
2022/09/11 10:29:28;;;;;;;24.27;5.88;;;21.80;67.50;;;;;;10112547;29;20496;-53
2022/09/11 10:34:39;;;;;;;24.88;5.65;;;21.80;67.80;;;;;;10110984;29;20048;-54
2022/09/11 10:39:44;;;;;;;32.17;7.38;;;21.80;68.10;;;;;;10109822;29;20025;-54
2022/09/11 10:44:46;;;;;;;27.15;6.30;;;21.80;67.70;;;;;;10123898;29;20428;-53
2022/09/11 10:49:48;;;;;;;28.20;7.85;;;21.80;68.10;;;;;;10127978;29;20040;-54
2022/09/11 10:55:21;;;;;;;34.83;7.35;;;21.90;69.20;;;;;;10108122;29;20115;-53
2022/09/11 11:00:26;;;;;;;24.23;7.78;;;22.00;70.10;;;;;;10084702;29;20040;-53
2022/09/11 11:06:01;;;;;;;26.58;6.03;;;22.00;71.80;;;;;;10123763;29;20041;-53
2022/09/11 11:11:54;;;;;;;39.63;7.70;;;22.00;71.60;;;;;;10130849;29;20359;-54
2022/09/11 11:17:30;;;;;;;32.95;6.80;;;21.90;69.40;;;;;;10115290;29;20054;-53
2022/09/11 11:22:57;;;;;;;32.72;7.30;;;21.90;69.70;;;;;;10126199;29;20029;-52
2022/09/11 11:28:27;;;;;;;25.63;6.15;;;21.90;71.30;;;;;;10124978;29;20086;-53
2022/09/11 11:33:46;;;;;;;15.68;6.78;;;21.90;71.30;;;;;;10109388;29;20308;-52
2022/09/11 11:39:17;;;;;;;15.02;6.20;;;21.80;69.70;;;;;;10124913;29;20092;-52
2022/09/11 11:44:59;;;;;;;17.98;5.97;;;21.90;69.60;;;;;;10107510;29;20489;-53
2022/09/11 11:50:11;;;;;;;18.02;6.97;;;21.90;69.50;;;;;;10122661;29;20045;-52
2022/09/11 11:55:23;;;;;;;24.88;7.20;;;22.00;69.20;;;;;;10123664;29;20056;-52
2022/09/11 12:00:27;;;;;;;13.27;5.00;;;22.00;69.20;;;;;;10124271;29;20074;-53
2022/09/11 12:05:32;;;;;;;11.32;4.85;;;22.00;68.90;;;;;;10107061;29;20496;-53
2022/09/11 12:10:40;;;;;;;11.45;5.40;;;22.00;69.00;;;;;;10107780;29;20088;-53
2022/09/11 12:16:08;;;;;;;12.95;4.82;;;22.00;68.90;;;;;;10107001;29;20052;-53
2022/09/11 12:21:24;;;;;;;10.48;4.40;;;22.00;68.70;;;;;;10124120;29;20025;-52
2022/09/11 12:26:26;;;;;;;10.48;3.88;;;22.10;68.60;;;;;;10122710;29;20042;-54
2022/09/11 12:31:49;;;;;;;10.55;4.03;;;22.10;68.40;;;;;;10123580;29;20039;-53
2022/09/11 12:36:53;;;;;;;9.98;4.07;;;22.10;68.20;;;;;;10122854;29;20367;-53
2022/09/11 12:42:20;;;;;;;11.02;4.85;;;22.10;68.50;;;;;;10106386;29;20037;-52
2022/09/11 12:47:33;;;;;;;10.93;4.35;;;22.10;68.30;;;;;;10122887;29;20056;-52
2022/09/11 12:52:49;;;;;;;11.15;5.03;;;22.10;68.30;;;;;;10106194;29;20195;-53
2022/09/11 12:57:50;;;;;;;7.38;3.45;;;22.10;68.30;;;;;;10108114;29;20461;-54
2022/09/11 13:02:55;;;;;;;7.55;4.22;;;22.10;68.30;;;;;;10126777;29;20045;-55
2022/09/11 13:07:59;;;;;;;15.32;4.50;;;22.20;68.30;;;;;;10122642;29;20482;-53
2022/09/11 13:13:02;;;;;;;14.50;4.70;;;22.20;68.40;;;;;;10120694;29;20049;-54
2022/09/11 13:18:35;;;;;;;16.92;4.85;;;22.10;69.20;;;;;;10141285;29;20052;-54
2022/09/11 13:23:36;;;;;;;11.23;4.07;;;22.10;68.50;;;;;;10083960;29;20048;-54
2022/09/11 13:28:48;;;;;;;9.48;3.90;;;22.10;68.50;;;;;;10113644;29;20045;-54
2022/09/11 13:33:51;;;;;;;10.52;5.20;;;22.10;68.20;;;;;;10114235;29;20041;-54
2022/09/11 13:38:59;;;;;;;19.42;4.70;;;22.20;69.20;;;;;;10113414;29;20043;-54
2022/09/11 13:44:00;;;;;;;10.65;3.38;;;22.30;69.80;;;;;;10128142;29;20043;-54
2022/09/11 13:49:05;;;;;;;10.38;4.55;;;22.30;68.00;;;;;;10113354;29;20029;-53
2022/09/11 13:54:22;;;;;;;17.63;5.47;;;22.30;68.00;;;;;;10117929;29;20092;-55
2022/09/11 13:59:45;;;;;;;20.17;4.47;;;22.20;67.90;;;;;;10116039;29;20471;-54
2022/09/11 14:04:46;;;;;;;9.73;4.55;;;22.20;68.30;;;;;;10130698;29;20040;-54
2022/09/11 14:09:59;;;;;;;16.10;5.20;;;22.20;68.10;;;;;;10128678;29;20112;-55
2022/09/11 14:15:17;;;;;;;13.55;4.30;;;22.20;68.90;;;;;;10123053;29;20147;-54
2022/09/11 14:20:19;;;;;;;17.52;5.60;;;22.20;69.10;;;;;;10126715;29;20072;-54
2022/09/11 14:25:22;;;;;;;9.38;4.68;;;22.20;69.40;;;;;;10112934;29;20045;-54
2022/09/11 14:30:34;;;;;;;11.02;3.72;;;22.10;69.40;;;;;;10129859;29;20388;-53
2022/09/11 14:35:35;;;;;;;8.13;4.07;;;22.10;69.60;;;;;;10127995;29;20046;-53
2022/09/11 14:40:36;;;;;;;17.40;4.13;;;22.20;69.60;;;;;;10129442;29;20039;-53
2022/09/11 14:45:37;;;;;;;26.83;5.90;;;22.20;69.60;;;;;;10127051;29;20037;-55
2022/09/11 14:50:38;;;;;;;20.13;5.55;;;22.20;69.80;;;;;;10126525;29;20036;-55
2022/09/11 14:55:39;;;;;;;17.98;4.75;;;22.20;70.00;;;;;;10109202;29;20396;-56
2022/09/11 15:00:39;;;;;;;15.80;5.15;;;22.20;69.20;;;;;;10111431;29;20083;-55
2022/09/11 15:05:42;;;;;;;14.38;4.13;;;22.10;69.20;;;;;;10128291;29;20120;-54
2022/09/11 15:10:45;;;;;;;9.68;4.30;;;22.10;69.10;;;;;;10128022;29;20761;-55
2022/09/11 15:15:46;;;;;;;12.98;4.38;;;22.10;68.40;;;;;;10127911;29;20079;-56
2022/09/11 15:20:46;;;;;;;9.57;3.78;;;22.00;68.40;;;;;;10123728;29;20172;-52
2022/09/11 15:25:47;;;;;;;12.23;4.85;;;22.10;68.40;;;;;;10124536;29;20032;-57
2022/09/11 15:30:57;;;;;;;16.63;5.05;;;22.00;68.20;;;;;;10121949;29;20590;-56
2022/09/11 15:36:03;;;;;;;7.40;4.10;;;22.00;68.80;;;;;;10123635;29;20040;-55
2022/09/11 15:41:06;;;;;;;15.82;4.82;;;22.10;67.70;;;;;;10123516;29;20032;-54
2022/09/11 15:46:10;;;;;;;10.60;4.38;;;22.10;69.30;;;;;;10123027;29;20039;-54
2022/09/11 15:51:17;;;;;;;7.57;4.60;;;22.10;67.90;;;;;;10124520;29;20046;-56
2022/09/11 15:56:19;;;;;;;10.52;4.97;;;22.00;66.70;;;;;;10122371;29;20041;-52
2022/09/11 16:01:24;;;;;;;23.10;8.63;;;22.00;66.90;;;;;;10125184;29;20017;-54
2022/09/11 16:06:28;;;;;;;17.70;6.47;;;22.10;68.90;;;;;;10125027;29;20096;-56
2022/09/11 16:11:31;;;;;;;20.48;6.93;;;22.20;68.00;;;;;;10107696;29;20029;-56
2022/09/11 16:16:32;;;;;;;17.17;6.10;;;22.10;67.40;;;;;;10124324;29;20051;-55
2022/09/11 16:21:32;;;;;;;19.80;5.70;;;22.20;68.50;;;;;;10126032;29;20119;-55
2022/09/11 16:26:34;;;;;;;12.23;4.55;;;22.40;68.80;;;;;;10125659;29;20041;-53
2022/09/11 16:31:35;;;;;;;13.18;4.22;;;22.50;68.70;;;;;;10125910;29;20671;-55
2022/09/11 16:36:39;;;;;;;14.70;5.68;;;22.50;68.70;;;;;;10111050;29;20437;-56
2022/09/11 16:41:40;;;;;;;13.90;4.85;;;22.60;68.70;;;;;;10133535;29;20477;-55
2022/09/11 16:46:41;;;;;;;12.20;4.90;;;22.60;68.60;;;;;;10132789;29;20068;-53
2022/09/11 16:51:44;;;;;;;12.77;4.90;;;22.60;68.70;;;;;;10132870;29;20609;-51
2022/09/11 16:56:44;;;;;;;24.55;6.38;;;22.50;69.30;;;;;;10132258;29;20072;-53
2022/09/11 17:01:45;;;;;;;19.45;5.03;;;22.50;68.50;;;;;;10132085;29;20124;-53
2022/09/11 17:06:46;;;;;;;20.92;5.93;;;22.70;68.20;;;;;;10132598;29;20047;-55
2022/09/11 17:11:47;;;;;;;18.13;5.03;;;22.70;68.20;;;;;;10115922;29;20056;-55
2022/09/11 17:16:48;;;;;;;17.83;6.25;;;22.50;68.80;;;;;;10115886;29;20041;-55
2022/09/11 17:21:49;;;;;;;11.90;4.78;;;22.40;69.20;;;;;;10131819;29;20072;-55
2022/09/11 17:26:50;;;;;;;17.05;4.90;;;22.30;69.30;;;;;;10131722;29;20105;-55
2022/09/11 17:31:51;;;;;;;9.75;4.72;;;22.30;69.60;;;;;;10132256;29;20039;-55
2022/09/11 17:36:51;;;;;;;17.75;5.75;;;22.20;69.10;;;;;;10131420;29;20048;-54
2022/09/11 17:41:52;;;;;;;12.35;4.80;;;22.20;69.40;;;;;;10130542;29;20112;-55
2022/09/11 17:46:55;;;;;;;11.68;4.88;;;22.20;69.30;;;;;;10110561;29;20552;-54
2022/09/11 17:51:56;;;;;;;18.95;5.53;;;22.20;69.10;;;;;;10118417;29;20052;-54
2022/09/11 17:56:57;;;;;;;16.63;5.30;;;22.10;68.50;;;;;;10115907;29;20131;-54
2022/09/11 18:01:59;;;;;;;14.48;5.93;;;22.20;68.50;;;;;;10109829;29;20047;-55
2022/09/11 18:07:00;;;;;;;18.63;5.88;;;22.20;68.60;;;;;;10119489;29;20120;-55
2022/09/11 18:12:02;;;;;;;17.25;5.80;;;22.20;68.40;;;;;;10129293;29;20040;-55
2022/09/11 18:17:03;;;;;;;12.25;5.80;;;22.10;68.50;;;;;;10132399;29;20103;-54
2022/09/11 18:22:08;;;;;;;13.70;5.35;;;22.10;68.60;;;;;;10138359;29;20056;-55
2022/09/11 18:27:11;;;;;;;15.77;6.50;;;22.10;68.40;;;;;;10106635;29;20817;-54
2022/09/11 18:32:11;;;;;;;17.13;6.55;;;22.10;68.40;;;;;;10126182;29;20104;-55
2022/09/11 18:37:12;;;;;;;20.02;6.47;;;22.10;68.20;;;;;;10125833;29;20092;-55
2022/09/11 18:42:13;;;;;;;12.52;4.75;;;22.10;68.60;;;;;;10125849;29;20037;-55
2022/09/11 18:47:13;;;;;;;11.57;5.22;;;22.10;68.60;;;;;;10118310;29;20035;-54
2022/09/11 18:52:15;;;;;;;13.07;5.38;;;22.20;68.60;;;;;;10113773;29;20120;-54
2022/09/11 18:57:16;;;;;;;8.43;4.97;;;22.20;68.70;;;;;;10118936;29;20096;-55
2022/09/11 19:02:17;;;;;;;10.60;5.32;;;22.20;68.60;;;;;;10125382;29;20123;-55
2022/09/11 19:07:18;;;;;;;14.68;5.18;;;22.20;68.80;;;;;;10127521;29;20032;-55
2022/09/11 19:12:19;;;;;;;16.63;5.40;;;22.20;68.70;;;;;;10126886;29;20097;-54
2022/09/11 19:17:20;;;;;;;15.18;6.43;;;22.20;68.60;;;;;;10112933;29;20712;-55
2022/09/11 19:22:22;;;;;;;12.65;4.82;;;22.20;68.70;;;;;;10126952;29;20060;-54
2022/09/11 19:27:25;;;;;;;14.45;4.70;;;22.20;68.70;;;;;;10132029;29;20366;-56
2022/09/11 19:32:25;;;;;;;11.00;4.20;;;22.20;68.80;;;;;;10107878;29;20028;-54
2022/09/11 19:37:27;;;;;;;11.07;5.03;;;22.10;68.60;;;;;;10123857;29;20080;-54
2022/09/11 19:42:28;;;;;;;7.60;4.07;;;22.10;68.50;;;;;;10125745;29;20024;-56
2022/09/11 19:47:28;;;;;;;7.05;4.30;;;22.10;68.50;;;;;;10126270;29;20059;-55
2022/09/11 19:52:29;;;;;;;5.32;4.13;;;22.10;68.40;;;;;;10125791;29;20460;-56
2022/09/11 19:57:30;;;;;;;6.13;4.10;;;22.10;68.30;;;;;;10123845;29;20120;-56
2022/09/11 20:02:31;;;;;;;9.15;3.70;;;22.10;68.30;;;;;;10123723;29;20116;-55
2022/09/11 20:07:31;;;;;;;7.70;3.83;;;22.10;68.20;;;;;;10124918;29;20040;-55
2022/09/11 20:12:35;;;;;;;4.95;3.40;;;22.10;68.10;;;;;;10108985;29;20119;-54
2022/09/11 20:17:36;;;;;;;6.55;4.40;;;22.10;68.00;;;;;;10133072;29;20044;-55
2022/09/11 20:22:37;;;;;;;8.23;4.25;;;22.10;67.90;;;;;;10130346;29;20060;-55
2022/09/11 20:27:38;;;;;;;6.82;3.70;;;22.10;67.80;;;;;;10124995;29;20042;-56
2022/09/11 20:32:38;;;;;;;5.45;3.50;;;22.10;67.80;;;;;;10123173;29;20036;-55
2022/09/11 20:37:39;;;;;;;9.35;3.65;;;22.10;67.80;;;;;;10108814;29;20064;-55
2022/09/11 20:42:40;;;;;;;4.57;4.07;;;22.10;67.60;;;;;;10125395;29;20037;-55
2022/09/11 20:47:41;;;;;;;4.57;3.15;;;22.10;67.60;;;;;;10125497;29;20041;-54
2022/09/11 20:52:45;;;;;;;5.32;2.95;;;22.10;67.50;;;;;;10122781;29;20176;-55
2022/09/11 20:57:46;;;;;;;8.63;3.85;;;22.10;67.50;;;;;;10123553;29;20048;-56
2022/09/11 21:02:46;;;;;;;4.63;3.30;;;22.10;67.50;;;;;;10125054;29;20131;-55
2022/09/11 21:07:47;;;;;;;5.07;3.00;;;22.10;67.40;;;;;;10124696;29;20047;-55
2022/09/11 21:12:48;;;;;;;5.20;3.22;;;22.10;67.20;;;;;;10124717;29;20071;-55
2022/09/11 21:17:49;;;;;;;3.50;2.83;;;22.10;67.10;;;;;;10116127;29;20131;-54
2022/09/11 21:22:50;;;;;;;5.13;3.40;;;22.10;67.20;;;;;;10112017;29;20586;-54
2022/09/11 21:27:51;;;;;;;5.13;3.30;;;22.10;67.20;;;;;;10131217;29;20061;-55
2022/09/11 21:32:52;;;;;;;4.60;3.28;;;22.10;67.00;;;;;;10131435;29;20504;-55
2022/09/11 21:37:52;;;;;;;4.20;2.70;;;22.10;66.90;;;;;;10130757;29;20148;-55
2022/09/11 21:42:53;;;;;;;5.15;2.65;;;22.10;66.90;;;;;;10114753;29;20501;-55
2022/09/11 21:47:54;;;;;;;3.95;3.10;;;22.10;66.70;;;;;;10130821;29;20130;-56
2022/09/11 21:52:54;;;;;;;3.97;3.03;;;22.10;66.70;;;;;;10130953;29;20651;-54
2022/09/11 21:57:56;;;;;;;4.47;2.70;;;22.10;66.60;;;;;;10130400;29;20044;-54
2022/09/11 22:02:57;;;;;;;3.10;2.72;;;22.10;66.50;;;;;;10112954;29;20059;-55
2022/09/11 22:07:57;;;;;;;4.40;2.95;;;22.10;66.50;;;;;;10130567;29;20105;-56
2022/09/11 22:12:58;;;;;;;5.03;2.85;;;22.10;66.40;;;;;;10130409;29;20032;-55
2022/09/11 22:17:59;;;;;;;2.95;2.55;;;22.10;66.40;;;;;;10127986;29;20462;-55
2022/09/11 22:22:59;;;;;;;4.43;3.75;;;22.00;66.30;;;;;;10128844;29;20059;-54
2022/09/11 22:28:00;;;;;;;4.95;3.10;;;22.10;66.20;;;;;;10128922;29;20068;-56
2022/09/11 22:33:01;;;;;;;3.47;3.13;;;22.10;66.20;;;;;;10129229;29;20028;-55
2022/09/11 22:38:02;;;;;;;4.13;3.17;;;22.00;66.10;;;;;;10128875;29;20049;-55
2022/09/11 22:43:03;;;;;;;4.00;3.22;;;22.00;66.00;;;;;;10112172;29;20095;-55
2022/09/11 22:48:03;;;;;;;3.58;3.28;;;22.00;66.00;;;;;;10128914;29;20724;-56
2022/09/11 22:53:04;;;;;;;3.60;2.95;;;22.00;65.90;;;;;;10128307;29;20032;-54
2022/09/11 22:58:04;;;;;;;4.18;3.67;;;22.00;65.90;;;;;;10082781;29;20116;-54
2022/09/11 23:03:05;;;;;;;3.72;3.40;;;22.00;65.90;;;;;;10089355;29;20434;-55
2022/09/11 23:08:06;;;;;;;3.40;2.88;;;22.00;65.80;;;;;;10089256;29;20061;-54
2022/09/11 23:13:07;;;;;;;3.65;3.05;;;22.00;65.80;;;;;;10089482;29;20100;-55
2022/09/11 23:18:08;;;;;;;3.58;2.95;;;22.00;65.70;;;;;;10099806;29;20024;-54
2022/09/11 23:23:08;;;;;;;3.25;2.83;;;22.00;65.70;;;;;;10089438;29;20029;-55
2022/09/11 23:28:09;;;;;;;4.30;2.90;;;22.00;65.70;;;;;;10076345;29;20040;-56
2022/09/11 23:33:10;;;;;;;3.55;3.25;;;22.00;65.70;;;;;;10087995;29;20076;-56
2022/09/11 23:38:11;;;;;;;3.67;3.03;;;22.00;65.60;;;;;;10048975;29;20124;-55
2022/09/11 23:43:11;;;;;;;3.20;2.80;;;22.00;65.50;;;;;;10071175;29;20125;-55
2022/09/11 23:48:12;;;;;;;3.85;3.33;;;22.00;65.40;;;;;;10088057;29;20036;-55
2022/09/11 23:53:13;;;;;;;3.42;2.95;;;21.90;65.30;;;;;;10071097;29;20120;-55
2022/09/11 23:58:14;;;;;;;3.50;2.97;;;22.00;65.30;;;;;;10117222;29;20049;-55
